Data for 02/29/2016

Time Sea-Level Adjusted Pressure Absolute Pressure Temperature Relative Humidity Dew Point   
(mb) (inHg) (mb) (inHg) (C) (F) (%) (C) (F)
00:05 1013 29.91 843 24.89 7.9 46.3 42 -4.1 24.5
00:10 1013 29.91 842 24.86 7.8 46 42 -4.2 24.4
00:15 1013 29.91 842 24.86 7.7 45.8 43 -4.2 24.5
00:20 1013 29.91 842 24.86 7.6 45.7 42 -4.4 24
00:25 1013 29.91 842 24.86 7.6 45.8 41 -4.6 23.7
00:30 1013 29.91 842 24.86 7.8 46 39 -5.4 22.2
00:35 1013 29.91 842 24.86 8.1 46.5 39 -4.9 23.1
00:40 1013 29.91 842 24.86 7.7 45.9 41 -4.6 23.7
00:45 1013 29.91 842 24.86 7.4 45.4 42 -4.7 23.5
00:50 1013 29.91 842 24.86 7.3 45.1 42 -4.7 23.5
00:55 1013 29.91 842 24.86 7.1 44.7 42 -4.8 23.3
01:00 1013 29.91 842 24.86 7.1 44.7 41 -5.3 22.5
01:05 1013 29.91 842 24.86 7.4 45.2 40 -5.5 22.1
01:10 1013 29.91 842 24.86 7.7 45.8 39 -5.3 22.5
01:15 1013 29.91 842 24.86 7.8 46 40 -5 23.1
01:20 1013 29.91 842 24.86 7.7 45.9 42 -4.2 24.4
01:25 1013 29.91 842 24.86 7.5 45.5 45 -3.8 25.2
01:30 1013 29.91 842 24.86 7.2 45 47 -3.3 26.1
01:35 1013 29.91 842 24.86 7 44.5 49 -2.9 26.8
01:40 1013 29.91 842 24.86 6.7 44.1 51 -2.7 27.2
01:45 1013 29.91 842 24.86 6.5 43.8 52 -2.6 27.3
01:50 1013 29.91 842 24.86 6.3 43.4 54 -2.4 27.8
01:55 1013 29.91 842 24.86 6.2 43.1 55 -2.3 27.9
02:00 1013 29.91 842 24.86 6.1 42.9 55 -2.2 28.1
02:05 1013 29.91 842 24.86 6 42.7 55 -2.3 27.8
02:10 1014 29.94 843 24.89 6 42.7 54 -2.5 27.5
02:15 1014 29.94 843 24.89 5.5 41.9 64 -0.7 30.8
02:20 1014 29.94 843 24.89 4.5 40.1 71 -0.3 31.4
02:25 1014 29.94 843 24.89 3.8 38.8 76 -0.1 31.9
02:30 1014 29.94 843 24.89 3.4 38.2 78 -0.1 31.9
02:35 1014 29.94 843 24.89 3.1 37.7 79 -0.1 31.9
02:40 1015 29.97 844 24.92 2.4 36.4 83 -0.1 31.8
02:45 1015 29.97 844 24.92 1.6 35 87 -0.4 31.4
02:50 1015 29.97 844 24.92 1.1 34 89 -0.5 31.1
02:55 1015 29.97 844 24.92 0.8 33.5 90 -0.6 30.9
03:00 1015 29.97 844 24.92 0.7 33.2 91 -0.6 30.9
03:05 1015 29.97 844 24.92 0.5 32.9 92 -0.7 30.8
03:10 1015 29.97 844 24.92 0.4 32.7 92 -0.7 30.7
03:15 1015 29.97 844 24.92 0.3 32.5 93 -0.8 30.6
03:20 1015 29.97 844 24.92 0.2 32.3 93 -0.8 30.6
03:25 1015 29.97 844 24.92 0.1 32.2 93 -0.9 30.4
03:30 1015 29.97 844 24.92 -0 32 93 -0.9 30.3
03:35 1015 29.97 844 24.92 -0.1 31.9 93 -1 30.2
03:40 1015 29.97 845 24.95 -0.1 31.8 94 -1 30.3
03:45 1015 29.97 844 24.92 -0.1 31.8 94 -1 30.2
03:50 1015 29.97 844 24.92 -0.1 31.8 94 -1 30.2
03:55 1015 29.97 844 24.92 -0.1 31.8 94 -1 30.3
04:00 1015 29.97 844 24.92 -0.1 31.8 94 -0.9 30.3
04:05 1015 29.97 845 24.95 -0.2 31.7 94 -1.1 30.1
04:10 1015 29.97 845 24.95 -0.3 31.5 94 -1.1 30
04:15 1015 29.97 845 24.95 -0.3 31.5 94 -1.1 29.9
04:20 1016 30 845 24.95 -0.3 31.5 94 -1.1 30
04:25 1016 30 845 24.95 -0.3 31.5 94 -1.1 29.9
04:30 1016 30 845 24.95 -0.3 31.5 94 -1.2 29.9
04:35 1016 30 845 24.95 -0.2 31.6 94 -1.1 30
04:40 1016 30 845 24.95 -0.2 31.6 94 -1.1 30
04:45 1016 30 845 24.95 -0.2 31.6 93 -1.1 30
04:50 1016 30 845 24.95 -0.2 31.6 94 -1.1 30
04:55 1016 30 845 24.95 -0.2 31.6 94 -1.1 30
05:00 1016 30 845 24.95 -0.2 31.6 94 -1.1 30
05:05 1016 30 845 24.95 -0.2 31.6 94 -1.1 30
05:10 1016 30 845 24.95 -0.3 31.5 94 -1.2 29.9
05:15 1016 30 845 24.95 -0.3 31.5 94 -1.2 29.9
05:20 1016 30 845 24.95 -0.3 31.5 93 -1.2 29.8
05:25 1016 30 845 24.95 -0.3 31.5 93 -1.3 29.7
05:30 1016 30 845 24.95 -0.2 31.7 93 -1.2 29.8
05:35 1016 30 845 24.95 -0.1 31.8 91 -1.3 29.6
05:40 1016 30 845 24.95 -0 32 91 -1.4 29.6
05:45 1016 30 845 24.95 -0 31.9 90 -1.5 29.3
05:50 1016 30 845 24.95 -0 32 89 -1.6 29
05:55 1016 30 845 24.95 0 32 87 -1.8 28.7
06:00 1016 30 845 24.95 -0 31.9 86 -2 28.3
06:05 1016 30 845 24.95 -0.1 31.8 86 -2.2 28
06:10 1016 30 845 24.95 -0.2 31.7 84 -2.5 27.5
06:15 1016 30 845 24.95 -0.2 31.7 83 -2.7 27.1
06:20 1016 30 845 24.95 -0.2 31.7 82 -2.9 26.8
06:25 1016 30 845 24.95 -0.2 31.7 82 -2.9 26.7
06:30 1016 30 845 24.95 -0.1 31.7 80 -3.1 26.4
06:35 1016 30 845 24.95 -0.2 31.6 80 -3.3 26
06:40 1016 30 845 24.95 -0.5 31.1 79 -3.7 25.4
06:45 1016 30 845 24.95 -0.5 31.2 77 -4 24.9
06:50 1016 30 845 24.95 -0.3 31.4 74 -4.4 24.2
06:55 1016 30 845 24.95 -0.4 31.2 71 -5.1 22.8
07:00 1016 30 845 24.95 -0.5 31 64 -6.6 20.1
07:05 1016 30 845 24.95 -0.5 31.2 55 -8.4 16.9
07:10 1016 30 845 24.95 -0.2 31.7 55 -8.2 17.2
07:15 1016 30 845 24.95 -0.3 31.5 54 -8.5 16.7
07:20 1016 30 845 24.95 -0.5 31.1 51 -9.5 14.9
07:25 1016 30 845 24.95 -0.5 31.1 50 -9.8 14.4
07:30 1016 30 845 24.95 -0.5 31.1 49 -10 14
07:35 1016 30 845 24.95 -0.6 31 50 -9.8 14.3
07:40 1016 30 845 24.95 -0.7 30.7 50 -9.9 14.1
07:45 1015 29.97 845 24.95 -0.8 30.6 50 -9.9 14.2
07:50 1015 29.97 845 24.95 -0.8 30.5 49 -10.3 13.5
07:55 1015 29.97 845 24.95 -0.8 30.5 52 -9.5 14.8
08:00 1016 30 845 24.95 -0.8 30.5 51 -9.7 14.5
08:05 1016 30 845 24.95 -0.8 30.6 51 -9.7 14.6
08:10 1016 30 845 24.95 -0.8 30.6 51 -9.7 14.6
08:15 1016 30 845 24.95 -0.8 30.5 52 -9.6 14.7
08:20 1016 30 845 24.95 -0.9 30.3 48 -10.6 13
08:25 1016 30 846 24.98 -0.6 31 47 -10.6 12.9
08:30 1017 30.03 846 24.98 -0.4 31.2 50 -9.6 14.7
08:35 1017 30.03 846 24.98 -0.4 31.2 52 -9.1 15.7
08:40 1017 30.03 846 24.98 -0.6 30.9 54 -8.8 16.2
08:45 1017 30.03 846 24.98 -0.7 30.7 51 -9.6 14.8
08:50 1017 30.03 846 24.98 -0.4 31.2 51 -9.4 15.1
08:55 1017 30.03 846 24.98 -0.4 31.3 48 -10.1 13.8
09:00 1017 30.03 846 24.98 -0.3 31.5 44 -11.1 12
09:05 1017 30.03 846 24.98 -0.2 31.7 43 -11.3 11.7
09:10 1017 30.03 846 24.98 -0.2 31.6 45 -10.7 12.7
09:15 1017 30.03 846 24.98 -0.3 31.5 47 -10.1 13.7
09:20 1017 30.03 846 24.98 -0.8 30.5 48 -10.5 13.1
09:25 1017 30.03 846 24.98 -0.6 30.8 46 -10.8 12.6
09:30 1017 30.03 846 24.98 -0.2 31.7 46 -10.5 13
09:35 1017 30.03 846 24.98 0.3 32.6 44 -10.7 12.8
09:40 1017 30.03 846 24.98 0.3 32.5 45 -10.3 13.4
09:45 1017 30.03 847 25.01 0.7 33.2 46 -9.6 14.7
09:50 1018 30.06 847 25.01 0.6 33.1 49 -9 15.8
09:55 1018 30.06 847 25.01 0.4 32.7 52 -8.4 16.8
10:00 1018 30.06 847 25.01 0.5 32.9 52 -8.3 17.1
10:05 1018 30.06 847 25.01 0.5 32.8 50 -8.8 16.1
10:10 1018 30.06 847 25.01 0.9 33.7 44 -9.9 14.1
10:15 1017 30.03 847 25.01 1.4 34.5 39 -11.1 12
10:20 1017 30.03 847 25.01 1.9 35.4 36 -11.8 10.8
10:25 1017 30.03 847 25.01 2 35.7 36 -11.7 10.9
10:30 1017 30.03 847 25.01 2.3 36.1 38 -10.8 12.6
10:35 1018 30.06 847 25.01 2.7 36.9 36 -11.1 12.1
10:40 1018 30.06 847 25.01 2.5 36.5 37 -10.9 12.3
10:45 1018 30.06 847 25.01 2.1 35.7 38 -10.7 12.7
10:50 1018 30.06 847 25.01 2.6 36.8 37 -10.5 13
10:55 1018 30.06 847 25.01 3.1 37.5 36 -10.6 12.9
11:00 1018 30.06 847 25.01 3.5 38.3 36 -10.3 13.5
11:05 1018 30.06 847 25.01 3.5 38.3 36 -10.1 13.8
11:10 1018 30.06 847 25.01 3.7 38.7 34 -10.6 12.9
11:15 1018 30.06 847 25.01 3.5 38.4 34 -11 12.2
11:20 1018 30.06 847 25.01 3 37.3 34 -11.3 11.7
11:25 1018 30.06 847 25.01 3 37.4 34 -11.3 11.7
11:30 1018 30.06 847 25.01 3 37.3 34 -11.6 11.1
11:35 1018 30.06 847 25.01 2.9 37.2 33 -11.9 10.6
11:40 1018 30.06 847 25.01 2.8 37 34 -11.8 10.8
11:45 1018 30.06 847 25.01 3.2 37.8 33 -11.6 11.1
11:50 1018 30.06 847 25.01 3.6 38.4 35 -10.6 13
11:55 1018 30.06 847 25.01 3.3 37.9 35 -10.7 12.7
12:00 1018 30.06 847 25.01 3.3 38 34 -11.2 11.9
12:05 1018 30.06 847 25.01 3.5 38.4 30 -12.3 9.8
12:10 1018 30.06 847 25.01 3.2 37.7 30 -12.7 9.1
12:15 1018 30.06 847 25.01 3.2 37.7 32 -12 10.3
12:20 1018 30.06 847 25.01 3.8 38.8 31 -11.8 10.7
12:25 1018 30.06 847 25.01 4.1 39.4 32 -11 12.2
12:30 1018 30.06 847 25.01 4.3 39.7 31 -11.5 11.3
12:35 1018 30.06 847 25.01 4.2 39.6 29 -12.5 9.4
12:40 1018 30.06 847 25.01 3.8 38.9 28 -12.9 8.7
12:45 1018 30.06 847 25.01 4.1 39.4 30 -12 10.3
12:50 1018 30.06 847 25.01 4.6 40.3 27 -12.8 9
12:55 1018 30.06 847 25.01 4.7 40.4 27 -12.6 9.3
13:00 1018 30.06 847 25.01 4.9 40.8 25 -13.8 7.2
13:05 1018 30.06 847 25.01 4.7 40.4 28 -12.4 9.6
13:10 1018 30.06 847 25.01 4.4 39.9 28 -12.5 9.4
13:15 1018 30.06 847 25.01 4.3 39.7 27 -13.3 8.1
13:20 1018 30.06 847 25.01 4.8 40.6 26 -13.2 8.2
13:25 1018 30.06 847 25.01 4.8 40.7 27 -12.8 8.9
13:30 1018 30.06 847 25.01 4.9 40.9 27 -12.6 9.4
13:35 1018 30.06 847 25.01 5.1 41.2 24 -13.9 7
13:40 1018 30.06 847 25.01 5.1 41.1 25 -13.3 8
13:45 1018 30.06 847 25.01 5 40.9 27 -12.8 9
13:50 1018 30.06 847 25.01 5 41 24 -13.7 7.3
13:55 1018 30.06 847 25.01 5.1 41.3 22 -14.8 5.4
14:00 1018 30.06 847 25.01 4.7 40.5 25 -14 6.9
14:05 1018 30.06 847 25.01 4.2 39.6 27 -13.3 8
14:10 1018 30.06 847 25.01 4.6 40.3 25 -13.9 7
14:15 1018 30.06 847 25.01 4.6 40.4 24 -14.2 6.5
14:20 1018 30.06 847 25.01 4.7 40.5 24 -14.2 6.4
14:25 1018 30.06 847 25.01 5.1 41.2 25 -13.5 7.7
14:30 1018 30.06 847 25.01 5.1 41.1 24 -14.1 6.6
14:35 1018 30.06 847 25.01 5 41.1 26 -13.1 8.4
14:40 1018 30.06 847 25.01 5.5 41.8 24 -13.4 7.8
14:45 1018 30.06 847 25.01 5.5 41.9 23 -14 6.8
14:50 1018 30.06 847 25.01 5 41 24 -13.9 7
14:55 1018 30.06 847 25.01 5.4 41.7 24 -13.8 7.2
15:00 1018 30.06 847 25.01 5.8 42.4 23 -13.9 7
15:05 1018 30.06 847 25.01 5.7 42.3 25 -13 8.6
15:10 1018 30.06 847 25.01 5.9 42.7 24 -13.3 8.1
15:15 1018 30.06 847 25.01 6.3 43.4 22 -13.7 7.4
15:20 1018 30.06 847 25.01 6.4 43.6 22 -14 6.8
15:25 1018 30.06 847 25.01 6 42.7 22 -14 6.8
15:30 1018 30.06 847 25.01 5.7 42.3 23 -13.8 7.2
15:35 1018 30.06 847 25.01 5.4 41.6 24 -13.7 7.3
15:40 1018 30.06 847 25.01 5 41 25 -13.7 7.4
15:45 1018 30.06 847 25.01 5 41 23 -14.4 6.1
15:50 1018 30.06 847 25.01 4.6 40.4 24 -14.3 6.3
15:55 1018 30.06 847 25.01 4.5 40.1 26 -13.7 7.4
16:00 1018 30.06 848 25.04 4.4 39.9 26 -13.4 7.9
16:05 1018 30.06 848 25.04 4.6 40.3 25 -14 6.8
16:10 1018 30.06 848 25.04 4.9 40.8 24 -14.2 6.5
16:15 1018 30.06 848 25.04 5 41 22 -15 5
16:20 1018 30.06 848 25.04 4.8 40.6 23 -14.6 5.7
16:25 1018 30.06 847 25.01 4.7 40.5 22 -15.2 4.6
16:30 1018 30.06 848 25.04 4.6 40.2 24 -14.3 6.2
16:35 1018 30.06 848 25.04 4.9 40.8 23 -14.5 5.9
16:40 1018 30.06 848 25.04 5.4 41.8 22 -14.6 5.7
16:45 1018 30.06 848 25.04 5.6 42.1 21 -14.9 5.2
16:50 1018 30.06 848 25.04 5 41.1 22 -15.1 4.7
16:55 1018 30.06 848 25.04 5.3 41.6 21 -15.4 4.3
17:00 1019 30.09 848 25.04 5.1 41.3 22 -14.8 5.4
17:05 1019 30.09 848 25.04 4.7 40.4 23 -14.9 5.2
17:10 1019 30.09 848 25.04 4.8 40.7 22 -15.3 4.4
17:15 1019 30.09 848 25.04 5 40.9 22 -15.3 4.5
17:20 1019 30.09 848 25.04 5.3 41.5 22 -15 5.1
17:25 1019 30.09 848 25.04 5.4 41.7 20 -15.6 3.9
17:30 1019 30.09 848 25.04 5.3 41.6 22 -14.8 5.3
17:35 1019 30.09 848 25.04 5.5 41.9 22 -14.7 5.6
17:40 1019 30.09 848 25.04 5.5 41.8 21 -15.3 4.4
17:45 1019 30.09 848 25.04 5.5 41.9 22 -14.9 5.2
17:50 1019 30.09 848 25.04 5.7 42.3 19 -16.1 3
17:55 1019 30.09 848 25.04 5.4 41.7 21 -15.5 4.2
18:00 1019 30.09 848 25.04 5.4 41.8 23 -14.1 6.5
18:05 1019 30.09 848 25.04 5.4 41.7 23 -14 6.8
18:10 1019 30.09 848 25.04 5 41 25 -13.4 7.9
18:15 1019 30.09 848 25.04 4.8 40.7 25 -13.7 7.3
18:20 1019 30.09 848 25.04 4.8 40.7 25 -13.6 7.6
18:25 1019 30.09 848 25.04 4.7 40.4 25 -13.9 7
18:30 1019 30.09 848 25.04 4.5 40 24 -14.4 6.2
18:35 1019 30.09 848 25.04 4.5 40 24 -14.2 6.4
18:40 1019 30.09 848 25.04 4.5 40.1 26 -13.5 7.7
18:45 1019 30.09 848 25.04 4.3 39.7 26 -13.7 7.3
18:50 1019 30.09 848 25.04 3.9 39.1 25 -14.3 6.3
18:55 1019 30.09 849 25.07 3.8 38.8 26 -14.2 6.5
19:00 1019 30.09 849 25.07 3.8 38.8 27 -13.5 7.8
19:05 1019 30.09 849 25.07 3.4 38.2 30 -12.7 9.1
19:10 1020 30.12 849 25.07 2.9 37.3 32 -12.4 9.7
19:15 1020 30.12 849 25.07 2.7 36.8 33 -12.2 10.1
19:20 1020 30.12 849 25.07 2.5 36.4 34 -12.1 10.3
19:25 1020 30.12 849 25.07 2.3 36.2 34 -12.1 10.3
19:30 1020 30.12 849 25.07 2.2 35.9 34 -12.1 10.3
19:35 1020 30.12 849 25.07 2 35.7 35 -11.9 10.7
19:40 1020 30.12 849 25.07 1.9 35.4 36 -11.9 10.7
19:45 1020 30.12 849 25.07 1.7 35.1 36 -11.8 10.7
19:50 1020 30.12 849 25.07 1.6 34.9 37 -11.6 11.1
19:55 1020 30.12 849 25.07 1.5 34.7 37 -11.6 11.1
20:00 1020 30.12 849 25.07 1.4 34.5 38 -11.6 11.1
20:05 1020 30.12 850 25.1 1.3 34.4 38 -11.6 11.1
20:10 1020 30.12 850 25.1 1.3 34.4 36 -12.1 10.2
20:15 1020 30.12 850 25.1 1.2 34.2 35 -12.6 9.3
20:20 1020 30.12 850 25.1 1 33.8 35 -12.7 9.1
20:25 1020 30.12 850 25.1 1 33.7 34 -13.2 8.2
20:30 1020 30.12 850 25.1 1 33.8 34 -13.2 8.2
20:35 1020 30.12 850 25.1 1 33.8 34 -13.3 8
20:40 1021 30.15 850 25.1 1 33.9 33 -13.6 7.6
20:45 1021 30.15 850 25.1 1 33.7 33 -13.6 7.6
20:50 1021 30.15 850 25.1 0.8 33.4 34 -13.3 8
20:55 1021 30.15 850 25.1 0.7 33.2 34 -13.5 7.7
21:00 1021 30.15 850 25.1 0.6 33.1 34 -13.5 7.7
21:05 1021 30.15 850 25.1 0.5 32.9 35 -13.3 8.1
21:10 1021 30.15 850 25.1 0.4 32.7 36 -13 8.5
21:15 1021 30.15 850 25.1 0.3 32.6 36 -12.9 8.8
21:20 1021 30.15 850 25.1 0.3 32.5 37 -12.6 9.3
21:25 1021 30.15 850 25.1 0.1 32.1 38 -12.6 9.3
21:30 1021 30.15 850 25.1 -0.1 31.9 38 -12.9 8.8
21:35 1021 30.15 850 25.1 -0 32 37 -13 8.5
21:40 1021 30.15 850 25.1 0.1 32.2 33 -14.4 6.1
21:45 1021 30.15 850 25.1 0.6 33.1 34 -13.6 7.5
21:50 1021 30.15 851 25.13 0.5 32.9 36 -12.9 8.7
21:55 1021 30.15 851 25.13 0 32.1 38 -12.5 9.4
22:00 1021 30.15 851 25.13 -0.3 31.5 39 -12.5 9.5
22:05 1022 30.18 851 25.13 -0.4 31.2 40 -12.6 9.3
22:10 1022 30.18 851 25.13 -0.5 31.2 40 -12.6 9.3
22:15 1022 30.18 851 25.13 -0.5 31.2 38 -13 8.5
22:20 1022 30.18 851 25.13 -0.3 31.5 37 -13.5 7.8
22:25 1022 30.18 851 25.13 -0.1 31.8 36 -13.6 7.6
22:30 1022 30.18 851 25.13 0 32 36 -13.4 7.8
22:35 1022 30.18 851 25.13 -0.1 31.9 37 -13 8.7
22:40 1022 30.18 851 25.13 -0.1 31.7 37 -13.2 8.3
22:45 1022 30.18 851 25.13 -0.2 31.7 38 -12.8 9
22:50 1022 30.18 851 25.13 -0.6 31 39 -13 8.7
22:55 1022 30.18 851 25.13 -0.7 30.7 38 -13.3 8
23:00 1022 30.18 851 25.13 -0.8 30.6 38 -13.3 8
23:05 1022 30.18 851 25.13 -0.8 30.6 39 -13.2 8.2
23:10 1022 30.18 851 25.13 -0.7 30.7 38 -13.4 7.9
23:15 1022 30.18 851 25.13 -0.8 30.6 39 -13 8.6
23:20 1022 30.18 851 25.13 -1.3 29.6 47 -11.1 12
23:25 1022 30.18 851 25.13 -2.1 28.2 51 -11 12.2
23:30 1022 30.18 851 25.13 -2.4 27.6 51 -11.3 11.7
23:35 1022 30.18 851 25.13 -2.5 27.5 51 -11.3 11.7
23:40 1022 30.18 851 25.13 -2.6 27.3 52 -11.2 11.8
23:45 1022 30.18 851 25.13 -2.6 27.3 50 -11.7 11
23:50 1022 30.18 851 25.13 -2.6 27.3 51 -11.5 11.4
23:55 1022 30.18 851 25.13 -2.5 27.5 48 -12.1 10.2
24:00 1022 30.18 851 25.13 -2.2 28 46 -12.3 9.9